Terminal Aerodrome Forecast
Issued by NWS Wilmington, OH

Current Version | Previous Version | Graphics & Text | Print | Product List | Glossary On
Versions: 1 2 3 4 5 6 7 8 9 10 11 12 13 14 15 16 17
000
FTUS41 KILN 100310 AAB
TAFILN
TAF AMD
KILN 100310Z 1003/1024 26014KT P6SM -SHSN SCT020 OVC035
     FM101200 27014G22KT 1 1/2SM -SHSN OVC015
     FM101600 27016G24KT 4SM -SHSN OVC022
     FM101900 27015G23KT P6SM OVC025
     FM102200 28014KT P6SM OVC035=

USA.gov is the U.S. government's official web portal to all federal, state and local government web resources and services.